createdAt,value
2022-08-07T00:01:44.540Z,10.25
2022-08-07T00:04:05.383Z,10.23
2022-08-07T00:06:33.873Z,10.24
2022-08-07T00:09:16.799Z,10.29
2022-08-07T00:11:54.078Z,10.25
2022-08-07T00:14:30.594Z,10.25
2022-08-07T00:16:59.768Z,10.32
2022-08-07T00:19:59.873Z,10.28
2022-08-07T00:22:24.718Z,10.31
2022-08-07T00:25:16.735Z,10.24
2022-08-07T00:27:52.580Z,10.27
2022-08-07T00:30:27.798Z,10.31
2022-08-07T00:32:59.410Z,10.27
2022-08-07T00:35:26.817Z,10.26
2022-08-07T00:37:56.815Z,10.33
2022-08-07T00:40:36.216Z,10.33
2022-08-07T00:43:09.658Z,10.34
2022-08-07T00:45:39.030Z,10.45
2022-08-07T00:48:09.181Z,10.53
2022-08-07T00:50:50.260Z,10.58
2022-08-07T00:53:20.271Z,10.61
2022-08-07T00:56:00.409Z,10.60
2022-08-07T00:58:30.673Z,10.65
2022-08-07T01:00:58.800Z,10.79
2022-08-07T01:03:56.380Z,10.83
2022-08-07T01:06:12.927Z,10.88
2022-08-07T01:08:46.524Z,10.84
2022-08-07T01:12:11.064Z,10.86
2022-08-07T01:14:07.827Z,10.93
2022-08-07T01:16:39.439Z,10.82
2022-08-07T01:19:14.778Z,10.85
2022-08-07T01:21:46.110Z,10.86
2022-08-07T01:24:13.570Z,10.89
2022-08-07T01:26:40.483Z,10.97
2022-08-07T01:29:07.407Z,11.04
2022-08-07T01:31:42.436Z,11.07
2022-08-07T01:34:09.766Z,11.08
2022-08-07T01:36:40.671Z,10.99
2022-08-07T01:39:10.098Z,11.02
2022-08-07T01:41:40.727Z,11.02
2022-08-07T01:44:22.088Z,11.08
2022-08-07T01:46:50.465Z,11.09
2022-08-07T01:49:17.352Z,10.99
2022-08-07T01:52:01.522Z,10.93
2022-08-07T01:54:33.299Z,10.82
2022-08-07T01:57:25.169Z,10.87
2022-08-07T01:59:57.566Z,10.90
2022-08-07T02:03:12.059Z,10.95
2022-08-07T02:05:43.344Z,10.96
2022-08-07T02:08:13.901Z,10.87
2022-08-07T02:10:42.229Z,10.95
2022-08-07T02:13:09.459Z,10.92
2022-08-07T02:15:36.687Z,10.96
2022-08-07T02:18:04.167Z,10.93
2022-08-07T02:20:36.705Z,10.91
2022-08-07T02:23:05.847Z,10.92
2022-08-07T02:26:31.473Z,10.88
2022-08-07T02:28:25.424Z,10.87
2022-08-07T02:30:54.429Z,10.77
2022-08-07T02:33:21.448Z,10.70
2022-08-07T02:36:29.408Z,10.69
2022-08-07T02:38:37.307Z,10.63
2022-08-07T02:41:04.508Z,10.63
2022-08-07T02:43:31.490Z,10.66
2022-08-07T02:46:01.869Z,10.64
2022-08-07T02:48:30.471Z,10.65
2022-08-07T02:50:57.930Z,10.69
2022-08-07T02:53:29.217Z,10.68
2022-08-07T02:56:03.056Z,10.61
2022-08-07T02:58:33.379Z,10.60
2022-08-07T03:01:00.752Z,10.64
2022-08-07T03:03:29.618Z,10.66
2022-08-07T03:06:25.950Z,10.67
2022-08-07T03:09:01.027Z,10.75
2022-08-07T03:11:28.227Z,10.79
2022-08-07T03:13:57.534Z,10.87
2022-08-07T03:16:28.989Z,10.94
2022-08-07T03:18:58.450Z,11.01
2022-08-07T03:21:25.689Z,11.11
2022-08-07T03:24:20.499Z,11.20
2022-08-07T03:26:51.002Z,11.29
2022-08-07T03:29:24.636Z,11.51
2022-08-07T03:31:54.527Z,11.70
2022-08-07T03:34:22.981Z,11.91
2022-08-07T03:36:54.694Z,12.08
2022-08-07T03:39:46.190Z,12.22
2022-08-07T03:42:08.480Z,12.29
2022-08-07T03:44:36.451Z,12.35
2022-08-07T03:47:13.345Z,12.49
2022-08-07T03:49:47.818Z,12.69
2022-08-07T03:52:26.583Z,12.93
2022-08-07T03:55:06.858Z,13.33
2022-08-07T03:58:34.731Z,13.67
2022-08-07T04:00:29.194Z,13.94
2022-08-07T04:02:59.636Z,14.22
2022-08-07T04:05:40.375Z,14.43
2022-08-07T04:08:11.035Z,14.23
2022-08-07T04:10:39.021Z,14.12
2022-08-07T04:13:15.276Z,13.98
2022-08-07T04:15:42.808Z,13.85
2022-08-07T04:18:57.825Z,13.86
2022-08-07T04:21:00.075Z,13.83
2022-08-07T04:23:43.399Z,13.87
2022-08-07T04:26:16.974Z,13.91
2022-08-07T04:28:49.051Z,14.37
2022-08-07T04:31:20.109Z,14.87
2022-08-07T04:33:47.348Z,15.18
2022-08-07T04:36:26.036Z,15.06
2022-08-07T04:38:53.325Z,14.98
2022-08-07T04:41:20.809Z,14.85
2022-08-07T04:44:12.022Z,14.86
2022-08-07T04:47:04.704Z,14.90
2022-08-07T04:49:57.916Z,14.94
2022-08-07T04:53:08.247Z,14.98
2022-08-07T04:58:16.823Z,15.08
2022-08-07T05:02:01.412Z,15.36
2022-08-07T05:04:30.890Z,15.33
2022-08-07T05:07:20.266Z,15.26
2022-08-07T05:10:14.269Z,15.28
2022-08-07T05:12:51.548Z,15.26
2022-08-07T05:15:24.968Z,15.26
2022-08-07T05:17:55.733Z,15.44
2022-08-07T05:20:42.911Z,15.64
2022-08-07T05:23:42.654Z,15.59
2022-08-07T05:26:18.807Z,15.49
2022-08-07T05:28:53.749Z,15.56
2022-08-07T05:31:23.982Z,15.88
2022-08-07T05:34:05.509Z,16.27
2022-08-07T05:36:39.103Z,17.35
2022-08-07T05:39:09.134Z,18.21
2022-08-07T05:42:00.616Z,18.90
2022-08-07T05:44:31.030Z,19.50
2022-08-07T05:46:58.127Z,19.94
2022-08-07T05:49:28.025Z,20.49
2022-08-07T05:52:08.528Z,21.02
2022-08-07T05:54:44.486Z,21.55
2022-08-07T05:57:22.510Z,21.71
2022-08-07T05:59:56.112Z,21.94
2022-08-07T06:02:28.595Z,22.01
2022-08-07T06:04:58.190Z,22.15
2022-08-07T06:08:13.109Z,22.33
2022-08-07T06:10:15.279Z,22.49
2022-08-07T06:12:42.448Z,22.63
2022-08-07T06:15:10.067Z,22.87
2022-08-07T06:17:53.714Z,22.90
2022-08-07T06:20:49.485Z,22.96
2022-08-07T06:23:46.003Z,23.31
2022-08-07T06:25:59.592Z,23.69
2022-08-07T06:28:28.444Z,24.05
2022-08-07T06:30:55.931Z,23.86
2022-08-07T06:33:22.952Z,24.01
2022-08-07T06:36:11.956Z,24.42
2022-08-07T06:38:36.770Z,25.06
2022-08-07T06:41:09.810Z,25.16
2022-08-07T06:43:46.101Z,25.51
2022-08-07T06:46:14.386Z,25.97
2022-08-07T06:48:44.421Z,25.89
2022-08-07T06:51:15.992Z,25.67
2022-08-07T06:55:28.605Z,25.39
2022-08-07T06:56:50.887Z,24.91
2022-08-07T07:00:14.489Z,24.90
2022-08-07T07:02:09.456Z,24.32
2022-08-07T07:04:38.362Z,25.00
2022-08-07T07:07:19.469Z,25.72
2022-08-07T07:09:57.530Z,26.14
2022-08-07T07:12:48.677Z,26.69
2022-08-07T07:15:24.027Z,26.27
2022-08-07T07:18:11.469Z,26.46
2022-08-07T07:20:40.227Z,27.06
2022-08-07T07:24:08.227Z,26.48
2022-08-07T07:26:32.813Z,26.16
2022-08-07T07:29:39.501Z,26.97
2022-08-07T07:31:47.363Z,27.47
2022-08-07T07:34:19.008Z,27.23
2022-08-07T07:36:47.967Z,26.85
2022-08-07T07:39:20.102Z,26.96
2022-08-07T07:42:02.058Z,27.20
2022-08-07T07:44:39.867Z,27.21
2022-08-07T07:47:14.247Z,27.29
2022-08-07T07:50:35.901Z,27.17
2022-08-07T07:52:37.008Z,27.71
2022-08-07T07:55:04.466Z,28.03
2022-08-07T07:57:52.104Z,27.98
2022-08-07T08:00:29.136Z,28.04
2022-08-07T08:03:04.817Z,28.66
2022-08-07T08:05:51.017Z,28.49
2022-08-07T08:08:36.347Z,28.58
2022-08-07T08:11:13.640Z,28.86
2022-08-07T08:13:52.885Z,26.82
2022-08-07T08:16:25.270Z,27.42
2022-08-07T08:18:52.870Z,26.79
2022-08-07T08:22:00.735Z,25.78
2022-08-07T08:24:45.849Z,27.68
2022-08-07T08:27:16.604Z,28.53
2022-08-07T08:29:54.547Z,29.69
2022-08-07T08:32:25.613Z,30.01
2022-08-07T08:35:07.657Z,29.55
2022-08-07T08:38:00.605Z,29.67
2022-08-07T08:40:32.190Z,31.05
2022-08-07T08:43:15.931Z,30.96
2022-08-07T08:46:00.546Z,30.03
2022-08-07T08:48:38.478Z,29.67
2022-08-07T08:52:01.109Z,30.02
2022-08-07T08:54:25.776Z,30.82
2022-08-07T08:56:53.767Z,27.82
2022-08-07T08:59:42.034Z,28.03
2022-08-07T09:02:40.424Z,25.83
2022-08-07T09:05:36.951Z,24.10
2022-08-07T09:08:29.754Z,23.49
2022-08-07T09:11:08.292Z,22.85
2022-08-07T09:14:13.130Z,22.87
2022-08-07T09:17:07.932Z,26.16
2022-08-07T09:20:35.228Z,26.19
2022-08-07T09:24:33.795Z,25.21
2022-08-07T09:25:58.811Z,25.01
2022-08-07T09:30:03.128Z,25.49
2022-08-07T09:31:38.448Z,28.22
2022-08-07T09:34:15.954Z,26.16
2022-08-07T09:37:03.857Z,24.80
2022-08-07T09:39:59.806Z,24.08
2022-08-07T09:42:50.368Z,23.67
2022-08-07T09:47:51.887Z,23.22
2022-08-07T09:48:30.076Z,23.24
2022-08-07T09:52:09.745Z,23.41
2022-08-07T09:54:04.021Z,23.09
2022-08-07T09:56:50.156Z,22.91
2022-08-07T09:59:46.248Z,23.18
2022-08-07T10:02:55.020Z,23.45
2022-08-07T10:06:01.214Z,23.62
2022-08-07T10:08:41.667Z,23.95
2022-08-07T10:12:02.505Z,24.84
2022-08-07T10:14:32.381Z,24.74
2022-08-07T10:17:17.830Z,26.65
2022-08-07T10:20:01.535Z,27.88
2022-08-07T10:23:07.614Z,28.33
2022-08-07T10:25:53.222Z,28.46
2022-08-07T10:28:55.111Z,31.37
2022-08-07T10:31:21.963Z,32.73
2022-08-07T10:34:31.804Z,32.05
2022-08-07T10:37:17.887Z,30.05
2022-08-07T10:40:05.516Z,28.41
2022-08-07T10:42:43.338Z,25.70
2022-08-07T10:45:45.349Z,24.63
2022-08-07T10:48:34.749Z,23.68
2022-08-07T10:51:16.297Z,23.23
2022-08-07T10:54:00.241Z,23.01
2022-08-07T10:56:33.210Z,22.73
2022-08-07T10:59:24.604Z,22.54
2022-08-07T11:02:33.116Z,22.39
2022-08-07T11:05:19.449Z,22.28
2022-08-07T11:08:02.583Z,22.35
2022-08-07T11:10:32.292Z,22.46
2022-08-07T11:14:42.291Z,22.71
2022-08-07T11:16:41.109Z,23.04
2022-08-07T11:19:29.751Z,23.33
2022-08-07T11:22:26.642Z,23.61
2022-08-07T11:25:11.587Z,23.64
2022-08-07T11:28:04.373Z,23.23
2022-08-07T11:30:55.951Z,22.86
2022-08-07T11:33:59.580Z,22.98
2022-08-07T11:37:00.363Z,22.77
2022-08-07T11:39:59.993Z,23.08
2022-08-07T11:42:49.965Z,23.75
2022-08-07T11:45:35.303Z,23.67
2022-08-07T11:48:29.740Z,24.20
2022-08-07T11:51:44.476Z,24.80
2022-08-07T11:54:37.108Z,25.42
2022-08-07T11:58:00.226Z,26.53
2022-08-07T12:00:39.092Z,27.06
2022-08-07T12:03:46.383Z,28.05
2022-08-07T12:06:39.086Z,27.87
2022-08-07T12:09:23.638Z,27.85
2022-08-07T12:12:12.077Z,26.67
2022-08-07T12:15:17.010Z,26.07
2022-08-07T12:18:29.628Z,24.67
2022-08-07T12:22:36.250Z,23.57
2022-08-07T12:24:38.574Z,25.23
2022-08-07T12:27:14.870Z,27.27
2022-08-07T12:29:57.686Z,27.38
2022-08-07T12:32:30.826Z,26.46
2022-08-07T12:34:58.355Z,25.01
2022-08-07T12:37:28.425Z,23.87
2022-08-07T12:40:36.158Z,22.66
2022-08-07T12:43:01.946Z,22.42
2022-08-07T12:45:55.295Z,22.80
2022-08-07T12:48:55.202Z,24.40
2022-08-07T12:51:46.622Z,25.48
2022-08-07T12:54:37.441Z,27.61
2022-08-07T12:57:09.797Z,28.28
2022-08-07T12:59:54.235Z,27.94
2022-08-07T13:02:49.417Z,25.95
2022-08-07T13:06:02.519Z,24.60
2022-08-07T13:08:24.849Z,25.51
2022-08-07T13:11:14.235Z,26.51
2022-08-07T13:14:20.407Z,24.81
2022-08-07T13:17:21.324Z,22.98
2022-08-07T13:19:52.813Z,22.19
2022-08-07T13:22:58.510Z,22.68
2022-08-07T13:25:54.162Z,22.78
2022-08-07T13:28:38.297Z,22.52
2022-08-07T13:31:13.109Z,22.17
2022-08-07T13:34:34.509Z,22.42
2022-08-07T13:36:58.007Z,24.58
2022-08-07T13:40:33.543Z,26.82
2022-08-07T13:42:27.089Z,28.63
2022-08-07T13:44:55.312Z,29.59
2022-08-07T13:48:06.411Z,29.43
2022-08-07T13:50:34.004Z,29.17
2022-08-07T13:53:14.536Z,28.76
2022-08-07T13:55:54.411Z,27.65
2022-08-07T13:58:41.968Z,26.03
2022-08-07T14:01:23.174Z,24.51
2022-08-07T14:04:09.595Z,25.10
2022-08-07T14:06:39.530Z,26.45
2022-08-07T14:09:07.467Z,26.87
2022-08-07T14:11:53.458Z,27.98
2022-08-07T14:14:49.058Z,28.00
2022-08-07T14:18:12.196Z,27.03
2022-08-07T14:20:43.262Z,25.32
2022-08-07T14:23:31.741Z,23.64
2022-08-07T14:26:08.442Z,22.48
2022-08-07T14:28:57.454Z,21.74
2022-08-07T14:31:24.168Z,21.39
2022-08-07T14:33:52.748Z,21.53
2022-08-07T14:36:20.993Z,22.54
2022-08-07T14:38:51.447Z,23.38
2022-08-07T14:41:33.872Z,24.21
2022-08-07T14:44:16.299Z,24.48
2022-08-07T14:46:51.898Z,25.30
2022-08-07T14:49:57.582Z,25.25
2022-08-07T14:52:24.496Z,24.57
2022-08-07T14:54:54.846Z,23.45
2022-08-07T14:57:21.989Z,22.81
2022-08-07T15:00:06.220Z,22.23
2022-08-07T15:02:35.136Z,21.67
2022-08-07T15:05:04.431Z,20.93
2022-08-07T15:07:50.893Z,20.76
2022-08-07T15:10:20.290Z,20.56
2022-08-07T15:12:58.191Z,20.34
2022-08-07T15:15:38.585Z,20.36
2022-08-07T15:18:28.240Z,20.42
2022-08-07T15:20:59.350Z,21.64
2022-08-07T15:25:13.965Z,22.48
2022-08-07T15:26:22.499Z,22.89
2022-08-07T15:32:00.619Z,22.04
2022-08-07T15:38:04.297Z,20.80
2022-08-07T15:40:36.867Z,20.47
2022-08-07T15:43:53.605Z,20.30
2022-08-07T15:49:14.454Z,19.58
2022-08-07T15:54:34.215Z,19.41
2022-08-07T15:57:02.318Z,19.42
2022-08-07T15:59:40.053Z,19.43
2022-08-07T16:02:15.208Z,19.43
2022-08-07T16:04:42.588Z,19.24
2022-08-07T16:08:30.536Z,19.15
2022-08-07T16:10:16.369Z,19.06
2022-08-07T16:13:04.868Z,19.07
2022-08-07T16:16:03.495Z,19.02
2022-08-07T16:18:49.427Z,18.83
2022-08-07T16:21:56.757Z,18.88
2022-08-07T16:24:33.615Z,18.93
2022-08-07T16:27:25.229Z,19.11
2022-08-07T16:30:30.248Z,19.29
2022-08-07T16:34:02.073Z,19.45
2022-08-07T16:36:04.527Z,19.62
2022-08-07T16:39:01.025Z,19.51
2022-08-07T16:42:06.892Z,19.43
2022-08-07T16:45:24.674Z,19.27
2022-08-07T16:48:13.568Z,19.14
2022-08-07T16:51:20.730Z,19.01
2022-08-07T16:54:06.233Z,18.93
2022-08-07T16:56:54.827Z,18.96
2022-08-07T16:59:47.158Z,19.07
2022-08-07T17:02:53.065Z,18.98
2022-08-07T17:06:28.440Z,18.85
2022-08-07T17:08:09.493Z,18.76
2022-08-07T17:10:54.581Z,18.75
2022-08-07T17:14:19.418Z,18.60
2022-08-07T17:16:43.676Z,18.40
2022-08-07T17:20:01.131Z,18.39
2022-08-07T17:22:17.346Z,18.35
2022-08-07T17:25:16.771Z,18.34
2022-08-07T17:27:57.451Z,18.33
2022-08-07T17:30:58.540Z,18.23
2022-08-07T17:34:10.082Z,18.09
2022-08-07T17:36:26.161Z,17.94
2022-08-07T17:39:15.458Z,17.87
2022-08-07T17:42:02.409Z,17.79
2022-08-07T17:44:45.555Z,17.82
2022-08-07T17:47:42.765Z,17.81
2022-08-07T17:50:22.772Z,17.76
2022-08-07T17:53:00.626Z,17.67
2022-08-07T17:55:55.972Z,17.68
2022-08-07T17:59:00.792Z,17.57
2022-08-07T18:01:39.884Z,17.43
2022-08-07T18:04:41.896Z,17.28
2022-08-07T18:07:24.114Z,17.17
2022-08-07T18:10:06.691Z,17.12
2022-08-07T18:13:11.708Z,16.96
2022-08-07T18:16:04.815Z,16.86
2022-08-07T18:21:01.157Z,16.76
2022-08-07T18:22:03.582Z,16.63
2022-08-07T18:24:52.597Z,16.57
2022-08-07T18:27:41.186Z,16.53
2022-08-07T18:30:32.478Z,16.49
2022-08-07T18:33:33.987Z,16.39
2022-08-07T18:36:32.697Z,16.20
2022-08-07T18:40:08.173Z,16.08
2022-08-07T18:42:21.678Z,15.88
2022-08-07T18:45:43.179Z,15.82
2022-08-07T18:48:09.028Z,15.62
2022-08-07T18:50:47.300Z,15.47
2022-08-07T18:53:45.369Z,15.30
2022-08-07T18:56:57.965Z,15.17
2022-08-07T19:00:34.633Z,14.96
2022-08-07T19:03:11.981Z,14.86
2022-08-07T19:06:05.182Z,14.77
2022-08-07T19:08:46.377Z,14.63
2022-08-07T19:11:35.903Z,14.42
2022-08-07T19:14:19.854Z,14.26
2022-08-07T19:17:05.809Z,14.21
2022-08-07T19:19:45.430Z,14.15
2022-08-07T19:22:30.765Z,14.12
2022-08-07T19:24:58.950Z,14.04
2022-08-07T19:28:57.903Z,13.86
2022-08-07T19:31:05.750Z,13.74
2022-08-07T19:33:10.263Z,13.78
2022-08-07T19:35:40.577Z,13.74
2022-08-07T19:38:16.074Z,13.70
2022-08-07T19:40:49.981Z,13.67
2022-08-07T19:43:48.860Z,13.65
2022-08-07T19:46:10.929Z,13.53
2022-08-07T19:48:42.242Z,13.52
2022-08-07T19:51:20.396Z,13.38
2022-08-07T19:54:31.810Z,13.27
2022-08-07T19:57:52.259Z,13.22
2022-08-07T19:59:40.792Z,13.16
2022-08-07T20:02:19.073Z,13.09
2022-08-07T20:04:49.273Z,12.93
2022-08-07T20:07:23.750Z,12.87
2022-08-07T20:10:33.444Z,12.79
2022-08-07T20:12:50.951Z,12.73
2022-08-07T20:15:22.158Z,12.56
2022-08-07T20:18:01.785Z,12.55
2022-08-07T20:20:30.718Z,12.48
2022-08-07T20:23:00.544Z,12.46
2022-08-07T20:25:28.269Z,12.44
2022-08-07T20:27:58.477Z,12.41
2022-08-07T20:30:31.002Z,12.39
2022-08-07T20:32:58.008Z,12.32
2022-08-07T20:35:51.988Z,12.29
2022-08-07T20:38:25.787Z,12.21
2022-08-07T20:40:56.456Z,12.24
2022-08-07T20:43:26.776Z,12.21
2022-08-07T20:46:28.566Z,12.12
2022-08-07T20:48:58.043Z,12.09
2022-08-07T20:51:29.971Z,11.96
2022-08-07T20:54:03.609Z,11.90
2022-08-07T20:56:41.259Z,11.96
2022-08-07T21:00:05.344Z,11.92
2022-08-07T21:02:01.764Z,11.89
2022-08-07T21:04:30.549Z,11.94
2022-08-07T21:07:04.491Z,11.90
2022-08-07T21:09:53.034Z,11.80
2022-08-07T21:12:31.078Z,11.79
2022-08-07T21:15:00.931Z,11.82
2022-08-07T21:18:03.514Z,11.83
2022-08-07T21:20:18.947Z,11.77
2022-08-07T21:22:57.189Z,11.71
2022-08-07T21:25:39.180Z,11.73
2022-08-07T21:28:19.144Z,11.64
2022-08-07T21:31:14.431Z,11.58
2022-08-07T21:33:48.928Z,11.62
2022-08-07T21:36:40.086Z,11.65
2022-08-07T21:39:44.899Z,11.62
2022-08-07T21:42:42.964Z,11.51
2022-08-07T21:46:05.062Z,11.47
2022-08-07T21:48:48.220Z,11.41
2022-08-07T21:51:32.235Z,11.37
2022-08-07T21:54:14.491Z,11.30
2022-08-07T21:57:15.953Z,11.31
2022-08-07T22:00:11.329Z,11.22
2022-08-07T22:03:08.618Z,11.21
2022-08-07T22:05:55.410Z,11.17
2022-08-07T22:08:24.814Z,11.14
2022-08-07T22:11:00.175Z,11.11
2022-08-07T22:13:50.272Z,10.98
2022-08-07T22:16:42.109Z,11.01
2022-08-07T22:19:07.552Z,11.03
2022-08-07T22:22:04.717Z,10.95
2022-08-07T22:24:37.991Z,10.89
2022-08-07T22:27:20.988Z,10.87
2022-08-07T22:30:26.488Z,10.78
2022-08-07T22:33:07.308Z,10.85
2022-08-07T22:35:46.347Z,10.85
2022-08-07T22:38:50.888Z,10.93
2022-08-07T22:42:04.023Z,10.96
2022-08-07T22:44:32.717Z,10.98
2022-08-07T22:47:17.992Z,11.10
2022-08-07T22:50:20.425Z,11.19
2022-08-07T22:53:18.759Z,11.18
2022-08-07T22:56:09.468Z,11.06
2022-08-07T22:59:13.574Z,11.02
2022-08-07T23:01:59.187Z,11.00
2022-08-07T23:06:09.991Z,10.98
2022-08-07T23:08:00.807Z,10.96
2022-08-07T23:10:42.371Z,10.91
2022-08-07T23:13:29.555Z,10.94
2022-08-07T23:16:44.570Z,10.89
2022-08-07T23:20:04.815Z,10.89
2022-08-07T23:23:10.216Z,10.88
2022-08-07T23:25:42.147Z,10.90
2022-08-07T23:28:36.666Z,10.93
2022-08-07T23:32:49.463Z,10.91
2022-08-07T23:34:39.713Z,10.91
2022-08-07T23:38:01.494Z,10.96
2022-08-07T23:41:02.744Z,11.03
2022-08-07T23:43:51.307Z,11.13
2022-08-07T23:46:51.867Z,11.18
2022-08-07T23:49:51.193Z,11.29
2022-08-07T23:53:00.349Z,11.41
2022-08-07T23:55:52.548Z,11.47
2022-08-07T23:59:10.444Z,11.56
